sensor_id;sensor_type;location;lat;lon;timestamp;P1;durP1;ratioP1;P2;durP2;ratioP2
323;SDS011;149;51.094;17.002;2023-07-20T00:00:06;5.67;;;3.90;;
323;SDS011;149;51.094;17.002;2023-07-20T00:02:34;4.83;;;4.33;;
323;SDS011;149;51.094;17.002;2023-07-20T00:05:01;6.13;;;4.33;;
323;SDS011;149;51.094;17.002;2023-07-20T00:07:28;9.63;;;5.10;;
323;SDS011;149;51.094;17.002;2023-07-20T00:09:55;8.67;;;5.10;;
323;SDS011;149;51.094;17.002;2023-07-20T00:12:23;5.20;;;4.70;;
323;SDS011;149;51.094;17.002;2023-07-20T00:14:51;7.90;;;5.33;;
323;SDS011;149;51.094;17.002;2023-07-20T00:17:20;10.23;;;5.97;;
323;SDS011;149;51.094;17.002;2023-07-20T00:19:47;7.47;;;6.10;;
323;SDS011;149;51.094;17.002;2023-07-20T00:22:14;7.00;;;5.20;;
323;SDS011;149;51.094;17.002;2023-07-20T00:24:41;6.40;;;5.80;;
323;SDS011;149;51.094;17.002;2023-07-20T00:27:08;7.70;;;5.93;;
323;SDS011;149;51.094;17.002;2023-07-20T00:29:35;7.37;;;6.20;;
323;SDS011;149;51.094;17.002;2023-07-20T00:32:02;6.70;;;6.10;;
323;SDS011;149;51.094;17.002;2023-07-20T00:34:32;8.43;;;5.10;;
323;SDS011;149;51.094;17.002;2023-07-20T00:36:59;6.47;;;5.33;;
323;SDS011;149;51.094;17.002;2023-07-20T00:39:26;5.87;;;5.27;;
323;SDS011;149;51.094;17.002;2023-07-20T00:41:54;6.37;;;5.80;;
323;SDS011;149;51.094;17.002;2023-07-20T00:44:21;6.97;;;5.77;;
323;SDS011;149;51.094;17.002;2023-07-20T00:46:48;6.77;;;6.07;;
323;SDS011;149;51.094;17.002;2023-07-20T00:49:15;6.87;;;6.27;;
323;SDS011;149;51.094;17.002;2023-07-20T00:51:43;9.20;;;5.10;;
323;SDS011;149;51.094;17.002;2023-07-20T00:54:10;6.23;;;5.63;;
323;SDS011;149;51.094;17.002;2023-07-20T00:56:38;8.17;;;5.77;;
323;SDS011;149;51.094;17.002;2023-07-20T00:59:06;7.43;;;6.73;;
323;SDS011;149;51.094;17.002;2023-07-20T01:01:33;9.60;;;6.90;;
323;SDS011;149;51.094;17.002;2023-07-20T01:04:00;8.13;;;5.37;;
323;SDS011;149;51.094;17.002;2023-07-20T01:06:35;7.50;;;5.70;;
323;SDS011;149;51.094;17.002;2023-07-20T01:09:10;6.60;;;5.47;;
323;SDS011;149;51.094;17.002;2023-07-20T01:12:08;6.93;;;6.23;;
323;SDS011;149;51.094;17.002;2023-07-20T01:14:39;5.87;;;5.30;;
323;SDS011;149;51.094;17.002;2023-07-20T01:17:06;7.87;;;7.00;;
323;SDS011;149;51.094;17.002;2023-07-20T01:19:33;8.50;;;6.60;;
323;SDS011;149;51.094;17.002;2023-07-20T01:22:06;8.73;;;6.40;;
323;SDS011;149;51.094;17.002;2023-07-20T01:30:25;6.03;;;5.53;;
323;SDS011;149;51.094;17.002;2023-07-20T01:33:13;6.90;;;6.20;;
323;SDS011;149;51.094;17.002;2023-07-20T01:35:42;9.77;;;5.80;;
323;SDS011;149;51.094;17.002;2023-07-20T01:38:11;7.30;;;5.97;;
323;SDS011;149;51.094;17.002;2023-07-20T01:40:40;8.33;;;7.63;;
323;SDS011;149;51.094;17.002;2023-07-20T01:43:08;7.50;;;6.37;;
323;SDS011;149;51.094;17.002;2023-07-20T01:45:34;7.80;;;6.97;;
323;SDS011;149;51.094;17.002;2023-07-20T01:48:02;6.73;;;6.13;;
323;SDS011;149;51.094;17.002;2023-07-20T01:50:29;6.17;;;5.57;;
323;SDS011;149;51.094;17.002;2023-07-20T01:52:57;7.43;;;6.70;;
323;SDS011;149;51.094;17.002;2023-07-20T01:55:23;6.53;;;6.03;;
323;SDS011;149;51.094;17.002;2023-07-20T01:57:51;8.33;;;6.10;;
323;SDS011;149;51.094;17.002;2023-07-20T02:00:18;6.97;;;6.27;;
323;SDS011;149;51.094;17.002;2023-07-20T02:02:50;8.47;;;6.93;;
323;SDS011;149;51.094;17.002;2023-07-20T02:05:17;9.03;;;7.10;;
323;SDS011;149;51.094;17.002;2023-07-20T02:07:44;8.20;;;6.87;;
323;SDS011;149;51.094;17.002;2023-07-20T02:10:11;7.50;;;6.50;;
323;SDS011;149;51.094;17.002;2023-07-20T02:12:38;7.30;;;6.67;;
323;SDS011;149;51.094;17.002;2023-07-20T02:15:05;7.87;;;7.17;;
323;SDS011;149;51.094;17.002;2023-07-20T02:17:33;10.43;;;7.03;;
323;SDS011;149;51.094;17.002;2023-07-20T02:20:00;8.67;;;7.20;;
323;SDS011;149;51.094;17.002;2023-07-20T02:22:27;7.93;;;7.23;;
323;SDS011;149;51.094;17.002;2023-07-20T02:24:54;7.10;;;6.50;;
323;SDS011;149;51.094;17.002;2023-07-20T02:27:21;8.10;;;6.93;;
323;SDS011;149;51.094;17.002;2023-07-20T02:29:48;8.97;;;8.17;;
323;SDS011;149;51.094;17.002;2023-07-20T02:32:17;8.83;;;7.90;;
323;SDS011;149;51.094;17.002;2023-07-20T02:34:44;8.43;;;7.83;;
323;SDS011;149;51.094;17.002;2023-07-20T02:37:11;8.57;;;7.87;;
323;SDS011;149;51.094;17.002;2023-07-20T02:39:39;9.70;;;7.50;;
323;SDS011;149;51.094;17.002;2023-07-20T02:42:06;9.27;;;8.40;;
323;SDS011;149;51.094;17.002;2023-07-20T02:44:35;8.53;;;7.60;;
323;SDS011;149;51.094;17.002;2023-07-20T02:47:02;9.40;;;8.50;;
323;SDS011;149;51.094;17.002;2023-07-20T02:49:30;8.80;;;7.83;;
323;SDS011;149;51.094;17.002;2023-07-20T02:51:57;12.00;;;7.90;;
323;SDS011;149;51.094;17.002;2023-07-20T02:54:24;10.47;;;8.47;;
323;SDS011;149;51.094;17.002;2023-07-20T02:56:51;9.80;;;7.90;;
323;SDS011;149;51.094;17.002;2023-07-20T02:59:21;10.27;;;9.27;;
323;SDS011;149;51.094;17.002;2023-07-20T03:01:47;7.60;;;7.00;;
323;SDS011;149;51.094;17.002;2023-07-20T03:04:15;8.63;;;7.73;;
323;SDS011;149;51.094;17.002;2023-07-20T03:06:42;8.70;;;7.80;;
323;SDS011;149;51.094;17.002;2023-07-20T03:09:10;11.43;;;8.30;;
323;SDS011;149;51.094;17.002;2023-07-20T03:11:37;8.00;;;7.30;;
323;SDS011;149;51.094;17.002;2023-07-20T03:14:04;7.63;;;6.93;;
323;SDS011;149;51.094;17.002;2023-07-20T03:16:31;8.63;;;7.83;;
323;SDS011;149;51.094;17.002;2023-07-20T03:18:59;10.23;;;7.67;;
323;SDS011;149;51.094;17.002;2023-07-20T03:21:27;10.00;;;8.27;;
323;SDS011;149;51.094;17.002;2023-07-20T03:23:54;15.50;;;8.87;;
323;SDS011;149;51.094;17.002;2023-07-20T03:26:21;9.77;;;8.33;;
323;SDS011;149;51.094;17.002;2023-07-20T03:28:48;8.90;;;8.00;;
323;SDS011;149;51.094;17.002;2023-07-20T03:31:15;12.10;;;9.80;;
323;SDS011;149;51.094;17.002;2023-07-20T03:33:42;8.40;;;7.13;;
323;SDS011;149;51.094;17.002;2023-07-20T03:36:10;13.50;;;7.23;;
323;SDS011;149;51.094;17.002;2023-07-20T03:38:37;9.07;;;8.17;;
323;SDS011;149;51.094;17.002;2023-07-20T03:41:04;8.50;;;7.80;;
323;SDS011;149;51.094;17.002;2023-07-20T03:43:31;8.70;;;7.80;;
323;SDS011;149;51.094;17.002;2023-07-20T03:45:58;7.80;;;6.77;;
323;SDS011;149;51.094;17.002;2023-07-20T03:48:25;9.00;;;7.83;;
323;SDS011;149;51.094;17.002;2023-07-20T03:50:52;9.77;;;7.50;;
323;SDS011;149;51.094;17.002;2023-07-20T03:53:20;7.57;;;6.87;;
323;SDS011;149;51.094;17.002;2023-07-20T03:55:48;8.47;;;7.30;;
323;SDS011;149;51.094;17.002;2023-07-20T03:58:16;7.40;;;6.27;;
323;SDS011;149;51.094;17.002;2023-07-20T04:00:45;8.03;;;7.20;;
323;SDS011;149;51.094;17.002;2023-07-20T04:03:13;6.93;;;6.43;;
323;SDS011;149;51.094;17.002;2023-07-20T04:05:41;6.77;;;6.20;;
323;SDS011;149;51.094;17.002;2023-07-20T04:08:08;7.07;;;6.43;;
323;SDS011;149;51.094;17.002;2023-07-20T04:10:38;8.07;;;7.37;;
323;SDS011;149;51.094;17.002;2023-07-20T04:13:05;9.33;;;5.60;;
323;SDS011;149;51.094;17.002;2023-07-20T04:15:32;24.63;;;9.07;;
323;SDS011;149;51.094;17.002;2023-07-20T04:17:59;5.90;;;5.37;;
323;SDS011;149;51.094;17.002;2023-07-20T04:20:27;10.90;;;6.50;;
323;SDS011;149;51.094;17.002;2023-07-20T04:22:54;14.13;;;6.47;;
323;SDS011;149;51.094;17.002;2023-07-20T04:25:21;8.67;;;7.77;;
323;SDS011;149;51.094;17.002;2023-07-20T04:27:48;12.37;;;6.67;;
323;SDS011;149;51.094;17.002;2023-07-20T04:30:16;10.60;;;6.40;;
323;SDS011;149;51.094;17.002;2023-07-20T04:32:46;12.83;;;7.50;;
323;SDS011;149;51.094;17.002;2023-07-20T04:38:16;8.47;;;7.40;;
323;SDS011;149;51.094;17.002;2023-07-20T04:40:45;10.47;;;7.60;;
323;SDS011;149;51.094;17.002;2023-07-20T04:43:13;7.97;;;7.23;;
323;SDS011;149;51.094;17.002;2023-07-20T04:45:41;9.70;;;7.80;;
323;SDS011;149;51.094;17.002;2023-07-20T04:48:11;13.70;;;7.47;;
323;SDS011;149;51.094;17.002;2023-07-20T04:50:40;13.10;;;8.07;;
323;SDS011;149;51.094;17.002;2023-07-20T04:53:08;8.50;;;6.43;;
323;SDS011;149;51.094;17.002;2023-07-20T04:55:37;9.90;;;7.07;;
323;SDS011;149;51.094;17.002;2023-07-20T04:58:05;9.43;;;7.60;;
323;SDS011;149;51.094;17.002;2023-07-20T05:00:33;7.53;;;6.60;;
323;SDS011;149;51.094;17.002;2023-07-20T05:03:00;10.20;;;6.63;;
323;SDS011;149;51.094;17.002;2023-07-20T05:05:28;8.20;;;6.27;;
323;SDS011;149;51.094;17.002;2023-07-20T05:07:55;9.30;;;7.77;;
323;SDS011;149;51.094;17.002;2023-07-20T05:10:22;7.00;;;6.03;;
323;SDS011;149;51.094;17.002;2023-07-20T05:12:50;11.73;;;6.97;;
323;SDS011;149;51.094;17.002;2023-07-20T05:15:17;8.27;;;7.40;;
323;SDS011;149;51.094;17.002;2023-07-20T05:17:44;11.23;;;7.47;;
323;SDS011;149;51.094;17.002;2023-07-20T05:20:11;9.83;;;7.00;;
323;SDS011;149;51.094;17.002;2023-07-20T05:22:39;8.27;;;7.57;;
323;SDS011;149;51.094;17.002;2023-07-20T05:25:07;10.67;;;6.67;;
323;SDS011;149;51.094;17.002;2023-07-20T05:27:36;12.00;;;8.40;;
323;SDS011;149;51.094;17.002;2023-07-20T05:30:04;8.07;;;7.13;;
323;SDS011;149;51.094;17.002;2023-07-20T05:32:33;8.37;;;6.80;;
323;SDS011;149;51.094;17.002;2023-07-20T05:35:00;10.10;;;7.93;;
323;SDS011;149;51.094;17.002;2023-07-20T05:37:28;11.80;;;7.17;;
323;SDS011;149;51.094;17.002;2023-07-20T05:39:55;11.30;;;8.67;;
323;SDS011;149;51.094;17.002;2023-07-20T05:42:24;10.17;;;7.77;;
323;SDS011;149;51.094;17.002;2023-07-20T05:44:50;8.70;;;7.43;;
323;SDS011;149;51.094;17.002;2023-07-20T05:47:19;10.13;;;7.60;;
323;SDS011;149;51.094;17.002;2023-07-20T05:49:46;8.17;;;7.47;;
323;SDS011;149;51.094;17.002;2023-07-20T05:52:13;14.67;;;7.97;;
323;SDS011;149;51.094;17.002;2023-07-20T05:54:41;9.57;;;8.57;;
323;SDS011;149;51.094;17.002;2023-07-20T05:57:08;10.10;;;8.70;;
323;SDS011;149;51.094;17.002;2023-07-20T05:59:35;14.10;;;8.97;;
323;SDS011;149;51.094;17.002;2023-07-20T06:02:03;9.20;;;8.30;;
323;SDS011;149;51.094;17.002;2023-07-20T06:04:30;19.40;;;9.30;;
323;SDS011;149;51.094;17.002;2023-07-20T06:06:57;12.80;;;9.43;;
323;SDS011;149;51.094;17.002;2023-07-20T06:09:25;11.47;;;10.47;;
323;SDS011;149;51.094;17.002;2023-07-20T06:11:53;10.93;;;9.50;;
323;SDS011;149;51.094;17.002;2023-07-20T06:14:20;14.83;;;9.40;;
323;SDS011;149;51.094;17.002;2023-07-20T06:16:47;14.83;;;10.00;;
323;SDS011;149;51.094;17.002;2023-07-20T06:19:14;15.23;;;9.33;;
323;SDS011;149;51.094;17.002;2023-07-20T06:21:43;11.03;;;9.17;;
323;SDS011;149;51.094;17.002;2023-07-20T06:24:10;11.43;;;9.10;;
323;SDS011;149;51.094;17.002;2023-07-20T06:26:37;9.80;;;8.40;;
323;SDS011;149;51.094;17.002;2023-07-20T06:29:07;10.60;;;7.70;;
323;SDS011;149;51.094;17.002;2023-07-20T06:31:35;12.13;;;8.07;;
323;SDS011;149;51.094;17.002;2023-07-20T06:34:03;7.63;;;6.83;;
323;SDS011;149;51.094;17.002;2023-07-20T06:36:30;9.60;;;8.00;;
323;SDS011;149;51.094;17.002;2023-07-20T06:38:57;11.37;;;8.13;;
323;SDS011;149;51.094;17.002;2023-07-20T06:41:27;11.50;;;8.03;;
323;SDS011;149;51.094;17.002;2023-07-20T06:43:57;9.43;;;7.27;;
323;SDS011;149;51.094;17.002;2023-07-20T06:46:25;9.40;;;8.47;;
323;SDS011;149;51.094;17.002;2023-07-20T06:48:53;8.37;;;7.57;;
323;SDS011;149;51.094;17.002;2023-07-20T06:51:24;14.00;;;7.67;;
323;SDS011;149;51.094;17.002;2023-07-20T06:53:52;8.03;;;7.20;;
323;SDS011;149;51.094;17.002;2023-07-20T06:56:18;9.50;;;6.97;;
323;SDS011;149;51.094;17.002;2023-07-20T06:58:50;7.43;;;6.73;;
323;SDS011;149;51.094;17.002;2023-07-20T07:01:17;7.97;;;7.40;;
323;SDS011;149;51.094;17.002;2023-07-20T07:03:44;8.87;;;8.00;;
323;SDS011;149;51.094;17.002;2023-07-20T07:06:12;10.70;;;7.30;;
323;SDS011;149;51.094;17.002;2023-07-20T07:08:39;6.70;;;5.97;;
323;SDS011;149;51.094;17.002;2023-07-20T07:11:06;6.23;;;5.73;;
323;SDS011;149;51.094;17.002;2023-07-20T07:13:33;6.30;;;5.70;;
323;SDS011;149;51.094;17.002;2023-07-20T07:16:01;8.40;;;6.07;;
323;SDS011;149;51.094;17.002;2023-07-20T07:18:28;9.77;;;7.23;;
323;SDS011;149;51.094;17.002;2023-07-20T07:20:56;8.93;;;6.60;;
323;SDS011;149;51.094;17.002;2023-07-20T07:23:27;6.90;;;5.57;;
323;SDS011;149;51.094;17.002;2023-07-20T07:25:54;7.30;;;5.73;;
323;SDS011;149;51.094;17.002;2023-07-20T07:28:21;8.43;;;5.67;;
323;SDS011;149;51.094;17.002;2023-07-20T07:30:49;5.73;;;5.27;;
323;SDS011;149;51.094;17.002;2023-07-20T07:33:16;9.07;;;6.43;;
323;SDS011;149;51.094;17.002;2023-07-20T07:35:43;8.37;;;6.30;;
323;SDS011;149;51.094;17.002;2023-07-20T07:38:10;5.13;;;4.70;;
323;SDS011;149;51.094;17.002;2023-07-20T07:40:44;6.57;;;5.30;;
323;SDS011;149;51.094;17.002;2023-07-20T07:43:11;7.60;;;6.90;;
323;SDS011;149;51.094;17.002;2023-07-20T07:45:40;6.90;;;6.27;;
323;SDS011;149;51.094;17.002;2023-07-20T07:48:07;7.20;;;5.60;;
323;SDS011;149;51.094;17.002;2023-07-20T07:50:34;6.40;;;5.77;;
323;SDS011;149;51.094;17.002;2023-07-20T07:53:02;6.67;;;6.00;;
323;SDS011;149;51.094;17.002;2023-07-20T07:55:29;6.53;;;5.87;;
323;SDS011;149;51.094;17.002;2023-07-20T07:57:56;6.20;;;5.60;;
323;SDS011;149;51.094;17.002;2023-07-20T08:00:23;8.67;;;5.23;;
323;SDS011;149;51.094;17.002;2023-07-20T08:02:50;6.37;;;5.77;;
323;SDS011;149;51.094;17.002;2023-07-20T08:05:18;6.13;;;4.77;;
323;SDS011;149;51.094;17.002;2023-07-20T08:07:45;5.27;;;4.87;;
323;SDS011;149;51.094;17.002;2023-07-20T08:10:12;11.13;;;5.00;;
323;SDS011;149;51.094;17.002;2023-07-20T08:12:42;5.37;;;4.70;;
323;SDS011;149;51.094;17.002;2023-07-20T08:15:12;4.13;;;3.83;;
323;SDS011;149;51.094;17.002;2023-07-20T08:17:41;4.53;;;3.97;;
323;SDS011;149;51.094;17.002;2023-07-20T08:20:12;4.43;;;4.07;;
323;SDS011;149;51.094;17.002;2023-07-20T08:22:40;4.50;;;4.10;;
323;SDS011;149;51.094;17.002;2023-07-20T08:25:07;4.10;;;3.80;;
323;SDS011;149;51.094;17.002;2023-07-20T08:27:36;4.17;;;3.73;;
323;SDS011;149;51.094;17.002;2023-07-20T08:30:04;3.90;;;3.70;;
323;SDS011;149;51.094;17.002;2023-07-20T08:32:32;4.20;;;3.63;;
323;SDS011;149;51.094;17.002;2023-07-20T08:34:59;4.70;;;3.20;;
323;SDS011;149;51.094;17.002;2023-07-20T08:37:26;5.57;;;3.73;;
323;SDS011;149;51.094;17.002;2023-07-20T08:39:56;3.93;;;3.60;;
323;SDS011;149;51.094;17.002;2023-07-20T08:42:23;3.40;;;3.10;;
323;SDS011;149;51.094;17.002;2023-07-20T08:44:52;4.57;;;3.70;;
323;SDS011;149;51.094;17.002;2023-07-20T08:47:20;4.77;;;4.07;;
323;SDS011;149;51.094;17.002;2023-07-20T08:49:49;7.80;;;4.23;;
323;SDS011;149;51.094;17.002;2023-07-20T08:52:16;5.20;;;4.47;;
323;SDS011;149;51.094;17.002;2023-07-20T08:54:44;4.43;;;3.93;;
323;SDS011;149;51.094;17.002;2023-07-20T08:57:11;4.23;;;3.83;;
323;SDS011;149;51.094;17.002;2023-07-20T08:59:43;4.00;;;3.70;;
323;SDS011;149;51.094;17.002;2023-07-20T09:02:11;4.37;;;3.97;;
323;SDS011;149;51.094;17.002;2023-07-20T09:04:45;5.03;;;3.70;;
323;SDS011;149;51.094;17.002;2023-07-20T09:07:12;4.33;;;3.47;;
323;SDS011;149;51.094;17.002;2023-07-20T09:09:41;5.23;;;3.20;;
323;SDS011;149;51.094;17.002;2023-07-20T09:12:15;3.30;;;2.90;;
323;SDS011;149;51.094;17.002;2023-07-20T09:14:43;4.63;;;4.27;;
323;SDS011;149;51.094;17.002;2023-07-20T09:17:13;5.67;;;5.13;;
323;SDS011;149;51.094;17.002;2023-07-20T09:19:47;5.53;;;5.03;;
323;SDS011;149;51.094;17.002;2023-07-20T09:22:15;4.90;;;4.57;;
323;SDS011;149;51.094;17.002;2023-07-20T09:24:43;6.20;;;5.60;;
323;SDS011;149;51.094;17.002;2023-07-20T09:27:11;4.60;;;3.90;;
323;SDS011;149;51.094;17.002;2023-07-20T09:29:51;3.90;;;3.60;;
323;SDS011;149;51.094;17.002;2023-07-20T09:32:19;3.93;;;3.53;;
323;SDS011;149;51.094;17.002;2023-07-20T09:34:50;7.00;;;3.00;;
323;SDS011;149;51.094;17.002;2023-07-20T09:37:21;3.70;;;2.90;;
323;SDS011;149;51.094;17.002;2023-07-20T09:39:51;4.00;;;3.47;;
323;SDS011;149;51.094;17.002;2023-07-20T09:42:22;3.83;;;3.47;;
323;SDS011;149;51.094;17.002;2023-07-20T09:44:54;4.13;;;3.83;;
323;SDS011;149;51.094;17.002;2023-07-20T09:47:23;13.70;;;3.50;;
323;SDS011;149;51.094;17.002;2023-07-20T09:49:57;3.67;;;3.37;;
323;SDS011;149;51.094;17.002;2023-07-20T09:52:29;3.47;;;3.17;;
323;SDS011;149;51.094;17.002;2023-07-20T09:55:00;2.90;;;2.70;;
323;SDS011;149;51.094;17.002;2023-07-20T09:57:29;3.00;;;2.70;;
323;SDS011;149;51.094;17.002;2023-07-20T09:59:57;5.13;;;3.97;;
323;SDS011;149;51.094;17.002;2023-07-20T10:02:33;2.90;;;2.50;;
323;SDS011;149;51.094;17.002;2023-07-20T10:05:05;3.10;;;2.83;;
323;SDS011;149;51.094;17.002;2023-07-20T10:07:36;3.27;;;3.07;;
323;SDS011;149;51.094;17.002;2023-07-20T10:10:10;3.07;;;2.60;;
323;SDS011;149;51.094;17.002;2023-07-20T10:12:37;2.50;;;2.30;;
323;SDS011;149;51.094;17.002;2023-07-20T10:15:17;3.13;;;2.80;;
323;SDS011;149;51.094;17.002;2023-07-20T10:17:58;2.70;;;2.50;;
323;SDS011;149;51.094;17.002;2023-07-20T10:20:35;3.07;;;2.87;;
323;SDS011;149;51.094;17.002;2023-07-20T10:23:25;4.17;;;3.10;;
323;SDS011;149;51.094;17.002;2023-07-20T10:25:54;2.30;;;2.10;;
323;SDS011;149;51.094;17.002;2023-07-20T10:28:23;3.27;;;2.30;;
323;SDS011;149;51.094;17.002;2023-07-20T10:30:51;3.30;;;2.17;;
323;SDS011;149;51.094;17.002;2023-07-20T10:33:18;3.10;;;2.83;;
323;SDS011;149;51.094;17.002;2023-07-20T10:35:53;2.60;;;2.30;;
323;SDS011;149;51.094;17.002;2023-07-20T10:38:40;2.70;;;2.40;;
323;SDS011;149;51.094;17.002;2023-07-20T10:41:16;4.07;;;2.60;;
323;SDS011;149;51.094;17.002;2023-07-20T10:43:46;2.77;;;2.50;;
323;SDS011;149;51.094;17.002;2023-07-20T10:46:14;2.93;;;2.70;;
323;SDS011;149;51.094;17.002;2023-07-20T10:48:59;2.50;;;2.27;;
323;SDS011;149;51.094;17.002;2023-07-20T10:51:47;5.30;;;2.60;;
323;SDS011;149;51.094;17.002;2023-07-20T10:56:49;2.33;;;2.20;;
323;SDS011;149;51.094;17.002;2023-07-20T10:59:35;2.80;;;2.60;;
323;SDS011;149;51.094;17.002;2023-07-20T11:02:05;4.43;;;2.60;;
323;SDS011;149;51.094;17.002;2023-07-20T11:04:43;3.30;;;3.00;;
323;SDS011;149;51.094;17.002;2023-07-20T11:07:17;3.13;;;2.83;;
323;SDS011;149;51.094;17.002;2023-07-20T11:10:14;4.23;;;2.50;;
323;SDS011;149;51.094;17.002;2023-07-20T11:15:47;3.10;;;2.60;;
323;SDS011;149;51.094;17.002;2023-07-20T11:18:27;3.00;;;2.57;;
323;SDS011;149;51.094;17.002;2023-07-20T11:20:54;2.87;;;2.67;;
323;SDS011;149;51.094;17.002;2023-07-20T11:23:22;3.30;;;3.00;;
323;SDS011;149;51.094;17.002;2023-07-20T11:25:49;3.50;;;3.30;;
323;SDS011;149;51.094;17.002;2023-07-20T11:28:16;3.43;;;3.20;;
323;SDS011;149;51.094;17.002;2023-07-20T11:30:44;4.67;;;3.60;;
323;SDS011;149;51.094;17.002;2023-07-20T11:33:11;12.70;;;3.47;;
323;SDS011;149;51.094;17.002;2023-07-20T11:35:44;8.20;;;5.03;;
323;SDS011;149;51.094;17.002;2023-07-20T11:38:14;7.60;;;5.30;;
323;SDS011;149;51.094;17.002;2023-07-20T11:40:42;5.87;;;5.37;;
323;SDS011;149;51.094;17.002;2023-07-20T11:43:11;9.07;;;6.03;;
323;SDS011;149;51.094;17.002;2023-07-20T11:45:41;8.27;;;7.47;;
323;SDS011;149;51.094;17.002;2023-07-20T11:48:14;10.13;;;9.33;;
323;SDS011;149;51.094;17.002;2023-07-20T11:50:44;10.73;;;9.93;;
323;SDS011;149;51.094;17.002;2023-07-20T11:53:11;10.80;;;10.00;;
323;SDS011;149;51.094;17.002;2023-07-20T11:55:39;11.20;;;10.23;;
323;SDS011;149;51.094;17.002;2023-07-20T11:58:08;14.67;;;11.93;;
323;SDS011;149;51.094;17.002;2023-07-20T12:00:38;11.87;;;10.83;;
323;SDS011;149;51.094;17.002;2023-07-20T12:03:06;11.80;;;10.93;;
323;SDS011;149;51.094;17.002;2023-07-20T12:05:34;11.53;;;10.53;;
323;SDS011;149;51.094;17.002;2023-07-20T12:08:20;12.77;;;10.73;;
323;SDS011;149;51.094;17.002;2023-07-20T12:10:48;10.23;;;9.33;;
323;SDS011;149;51.094;17.002;2023-07-20T12:13:15;9.00;;;8.40;;
323;SDS011;149;51.094;17.002;2023-07-20T12:15:42;8.90;;;8.30;;
323;SDS011;149;51.094;17.002;2023-07-20T12:18:10;6.33;;;5.93;;
323;SDS011;149;51.094;17.002;2023-07-20T12:20:37;5.97;;;5.37;;
323;SDS011;149;51.094;17.002;2023-07-20T12:23:08;5.80;;;5.20;;
323;SDS011;149;51.094;17.002;2023-07-20T12:25:44;5.20;;;4.80;;
323;SDS011;149;51.094;17.002;2023-07-20T12:28:13;7.40;;;4.73;;
323;SDS011;149;51.094;17.002;2023-07-20T12:30:41;4.97;;;4.53;;
323;SDS011;149;51.094;17.002;2023-07-20T12:33:10;4.50;;;4.10;;
323;SDS011;149;51.094;17.002;2023-07-20T12:35:42;4.90;;;4.53;;
323;SDS011;149;51.094;17.002;2023-07-20T12:38:09;5.83;;;3.87;;
323;SDS011;149;51.094;17.002;2023-07-20T12:40:36;4.23;;;3.93;;
323;SDS011;149;51.094;17.002;2023-07-20T12:43:04;4.30;;;3.93;;
323;SDS011;149;51.094;17.002;2023-07-20T12:45:32;4.37;;;4.07;;
323;SDS011;149;51.094;17.002;2023-07-20T12:48:00;7.03;;;4.93;;
323;SDS011;149;51.094;17.002;2023-07-20T12:50:27;4.30;;;4.00;;
323;SDS011;149;51.094;17.002;2023-07-20T12:52:54;4.03;;;3.70;;
323;SDS011;149;51.094;17.002;2023-07-20T12:55:21;4.00;;;3.70;;
323;SDS011;149;51.094;17.002;2023-07-20T12:57:48;4.90;;;4.60;;
323;SDS011;149;51.094;17.002;2023-07-20T13:00:15;4.17;;;3.40;;
323;SDS011;149;51.094;17.002;2023-07-20T13:02:42;3.33;;;3.13;;
323;SDS011;149;51.094;17.002;2023-07-20T13:05:10;3.57;;;3.37;;
323;SDS011;149;51.094;17.002;2023-07-20T13:07:38;2.90;;;2.70;;
323;SDS011;149;51.094;17.002;2023-07-20T13:10:08;7.20;;;3.20;;
323;SDS011;149;51.094;17.002;2023-07-20T13:12:37;2.70;;;2.50;;
323;SDS011;149;51.094;17.002;2023-07-20T13:15:05;3.27;;;2.97;;
323;SDS011;149;51.094;17.002;2023-07-20T13:17:37;3.97;;;3.13;;
323;SDS011;149;51.094;17.002;2023-07-20T13:20:06;3.20;;;2.90;;
323;SDS011;149;51.094;17.002;2023-07-20T13:22:37;3.30;;;3.10;;
323;SDS011;149;51.094;17.002;2023-07-20T13:25:04;3.70;;;3.40;;
323;SDS011;149;51.094;17.002;2023-07-20T13:27:32;4.00;;;3.70;;
323;SDS011;149;51.094;17.002;2023-07-20T13:30:00;3.30;;;3.10;;
323;SDS011;149;51.094;17.002;2023-07-20T13:32:29;2.87;;;2.67;;
323;SDS011;149;51.094;17.002;2023-07-20T13:34:59;3.40;;;3.10;;
323;SDS011;149;51.094;17.002;2023-07-20T13:37:27;3.27;;;3.00;;
323;SDS011;149;51.094;17.002;2023-07-20T13:39:54;3.77;;;3.47;;
323;SDS011;149;51.094;17.002;2023-07-20T13:42:23;3.50;;;2.77;;
323;SDS011;149;51.094;17.002;2023-07-20T13:44:51;3.03;;;2.83;;
323;SDS011;149;51.094;17.002;2023-07-20T13:47:26;4.50;;;2.77;;
323;SDS011;149;51.094;17.002;2023-07-20T13:49:54;3.17;;;2.87;;
323;SDS011;149;51.094;17.002;2023-07-20T13:52:30;2.87;;;2.13;;
323;SDS011;149;51.094;17.002;2023-07-20T13:55:00;2.60;;;2.43;;
323;SDS011;149;51.094;17.002;2023-07-20T13:57:30;2.90;;;2.70;;
323;SDS011;149;51.094;17.002;2023-07-20T14:00:00;3.03;;;2.30;;
323;SDS011;149;51.094;17.002;2023-07-20T14:02:30;3.63;;;2.60;;
323;SDS011;149;51.094;17.002;2023-07-20T14:05:01;3.00;;;2.80;;
323;SDS011;149;51.094;17.002;2023-07-20T14:07:31;2.73;;;2.53;;
323;SDS011;149;51.094;17.002;2023-07-20T14:09:58;3.10;;;2.63;;
323;SDS011;149;51.094;17.002;2023-07-20T14:12:28;2.60;;;2.40;;
323;SDS011;149;51.094;17.002;2023-07-20T14:14:55;2.33;;;2.13;;
323;SDS011;149;51.094;17.002;2023-07-20T14:17:23;2.53;;;2.40;;
323;SDS011;149;51.094;17.002;2023-07-20T14:19:50;3.20;;;2.90;;
323;SDS011;149;51.094;17.002;2023-07-20T14:22:19;2.50;;;2.30;;
323;SDS011;149;51.094;17.002;2023-07-20T14:24:46;2.27;;;2.13;;
323;SDS011;149;51.094;17.002;2023-07-20T14:27:13;2.13;;;1.90;;
323;SDS011;149;51.094;17.002;2023-07-20T14:29:40;2.67;;;2.47;;
323;SDS011;149;51.094;17.002;2023-07-20T14:32:07;2.43;;;2.20;;
323;SDS011;149;51.094;17.002;2023-07-20T14:34:34;2.37;;;2.27;;
323;SDS011;149;51.094;17.002;2023-07-20T14:37:05;2.67;;;2.10;;
323;SDS011;149;51.094;17.002;2023-07-20T14:39:32;1.83;;;1.73;;
323;SDS011;149;51.094;17.002;2023-07-20T14:41:59;2.03;;;1.93;;
323;SDS011;149;51.094;17.002;2023-07-20T14:44:26;5.20;;;2.30;;
323;SDS011;149;51.094;17.002;2023-07-20T14:46:53;2.23;;;2.13;;
323;SDS011;149;51.094;17.002;2023-07-20T14:49:38;2.40;;;2.23;;
323;SDS011;149;51.094;17.002;2023-07-20T14:52:05;3.03;;;2.30;;
323;SDS011;149;51.094;17.002;2023-07-20T14:54:41;3.80;;;2.53;;
323;SDS011;149;51.094;17.002;2023-07-20T14:57:08;3.60;;;2.10;;
323;SDS011;149;51.094;17.002;2023-07-20T14:59:41;4.23;;;2.50;;
323;SDS011;149;51.094;17.002;2023-07-20T15:02:08;2.10;;;2.00;;
323;SDS011;149;51.094;17.002;2023-07-20T15:04:35;2.70;;;2.50;;
323;SDS011;149;51.094;17.002;2023-07-20T15:07:02;2.63;;;2.40;;
323;SDS011;149;51.094;17.002;2023-07-20T15:09:30;2.60;;;2.30;;
323;SDS011;149;51.094;17.002;2023-07-20T15:11:57;2.63;;;2.43;;
323;SDS011;149;51.094;17.002;2023-07-20T15:14:24;3.30;;;3.03;;
323;SDS011;149;51.094;17.002;2023-07-20T15:16:52;3.73;;;2.63;;
323;SDS011;149;51.094;17.002;2023-07-20T15:19:19;2.50;;;2.30;;
323;SDS011;149;51.094;17.002;2023-07-20T15:21:48;2.70;;;2.50;;
323;SDS011;149;51.094;17.002;2023-07-20T15:24:15;2.80;;;2.60;;
323;SDS011;149;51.094;17.002;2023-07-20T15:26:42;3.17;;;2.97;;
323;SDS011;149;51.094;17.002;2023-07-20T15:29:09;3.53;;;2.60;;
323;SDS011;149;51.094;17.002;2023-07-20T15:31:57;2.33;;;1.90;;
323;SDS011;149;51.094;17.002;2023-07-20T15:34:26;2.27;;;2.07;;
323;SDS011;149;51.094;17.002;2023-07-20T15:36:54;2.40;;;2.20;;
323;SDS011;149;51.094;17.002;2023-07-20T15:39:21;3.77;;;2.37;;
323;SDS011;149;51.094;17.002;2023-07-20T15:41:48;4.70;;;2.57;;
323;SDS011;149;51.094;17.002;2023-07-20T15:44:15;2.10;;;2.00;;
323;SDS011;149;51.094;17.002;2023-07-20T15:49:09;2.63;;;2.43;;
323;SDS011;149;51.094;17.002;2023-07-20T15:51:36;2.73;;;2.37;;
323;SDS011;149;51.094;17.002;2023-07-20T15:54:04;2.53;;;2.40;;